Time;durP1;ratioP1;P1;durP2;ratioP2;P2;SDS_P1;SDS_P2;PMS_P1;PMS_P2;Temp;Humidity;BMP_temperature;BMP_pressure;BME280_temperature;BME280_humidity;BME280_pressure;Samples;Min_cycle;Max_cycle;Signal;HPM_P1;HPM_P2
2021/01/12 00:01:55;;;;;;;;;;;;;;;8.40;100.00;100904.72;6302057;22;19915;-92
2021/01/12 00:04:21;;;;;;;;;;;;;;;8.40;100.00;100909.13;6292469;22;19911;-92
2021/01/12 00:06:50;;;;;;;;;;;;;;;8.40;100.00;100915.19;6286604;22;20385;-93
2021/01/12 00:09:16;;;;;;;;;;;;;;;8.40;100.00;100911.75;6285360;22;19921;-95
2021/01/12 00:11:42;;;;;;;;;;;;;;;8.40;100.00;100916.97;6286178;22;19985;-92
2021/01/12 00:16:51;;;;;;;;;;;;;;;8.42;100.00;100912.44;6314551;22;19926;-92
2021/01/12 00:19:16;;;;;;;;;;;;;;;8.39;100.00;100921.38;6284443;22;19911;-93
2021/01/12 00:21:42;;;;;;;;;;;;;;;8.40;100.00;100911.75;6285341;22;19931;-92
2021/01/12 00:24:10;;;;;;;;;;;;;;;8.43;100.00;100908.88;6286506;22;19942;-92
2021/01/12 00:26:36;;;;;;;;;;;;;;;8.43;100.00;100913.28;6262271;22;19923;-93
2021/01/12 00:29:01;;;;;;;;;;;;;;;8.44;100.00;100909.72;6295895;22;19915;-91
2021/01/12 00:31:28;;;;;;;;;;;;;;;8.44;100.00;100912.31;6284513;22;19922;-93
2021/01/12 00:33:53;;;;;;;;;;;;;;;8.44;100.00;100918.38;6288466;22;19911;-93
2021/01/12 00:36:18;;;;;;;;;;;;;;;8.45;100.00;100919.22;6286793;22;19942;-92
2021/01/12 00:38:44;;;;;;;;;;;;;;;8.43;100.00;100916.72;6288568;22;19934;-92
2021/01/12 00:41:10;;;;;;;;;;;;;;;8.44;100.00;100914.94;6285716;22;19960;-92
2021/01/12 00:43:46;;;;;;;;;;;;;;;8.44;100.00;100920.16;6291071;22;19911;-91
2021/01/12 00:46:12;;;;;;;;;;;;;;;8.44;100.00;100914.94;6292368;22;19911;-93
2021/01/12 00:48:39;;;;;;;;;;;;;;;8.42;100.00;100909.00;6321562;22;19911;-93
2021/01/12 00:51:04;;;;;;;;;;;;;;;8.40;100.00;100909.97;6291056;22;19911;-93
2021/01/12 00:53:36;;;;;;;;;;;;;;;8.39;100.00;100908.31;6291342;22;19914;-91
2021/01/12 00:56:09;;;;;;;;;;;;;;;8.41;100.00;100913.41;6287941;22;19919;-94
2021/01/12 00:58:34;;;;;;;;;;;;;;;8.40;100.00;100915.19;6290315;22;19918;-94
2021/01/12 01:01:00;;;;;;;;;;;;;;;8.40;100.00;100911.75;6287775;22;19911;-93
2021/01/12 01:03:25;;;;;;;;;;;;;;;8.40;100.00;100912.56;6290225;22;19911;-92
2021/01/12 01:05:50;;;;;;;;;;;;;;;8.40;100.00;100924.81;6286559;22;19961;-90
2021/01/12 01:08:46;;;;;;;;;;;;;;;8.41;100.00;100931.69;6281609;22;19994;-93
2021/01/12 01:11:12;;;;;;;;;;;;;;;8.40;100.00;100925.63;6269638;22;19912;-93
2021/01/12 01:13:38;;;;;;;;;;;;;;;8.43;100.00;100923.72;6286076;22;19954;-93
2021/01/12 01:16:03;;;;;;;;;;;;;;;8.42;100.00;100915.06;6284672;22;19917;-92
2021/01/12 01:18:30;;;;;;;;;;;;;;;8.42;100.00;100922.06;6286897;22;20282;-91
2021/01/12 01:20:55;;;;;;;;;;;;;;;8.42;100.00;100922.91;6257757;22;19915;-92
2021/01/12 01:23:20;;;;;;;;;;;;;;;8.42;100.00;100933.34;6284523;22;19962;-92
2021/01/12 01:25:46;;;;;;;;;;;;;;;8.43;100.00;100923.72;6283165;22;20310;-92
2021/01/12 01:28:11;;;;;;;;;;;;;;;8.43;100.00;100935.03;6282223;22;19934;-93
2021/01/12 01:30:37;;;;;;;;;;;;;;;8.43;100.00;100935.03;6281792;22;20251;-91
2021/01/12 01:33:03;;;;;;;;;;;;;;;8.43;100.00;100940.25;6235125;22;19916;-91
2021/01/12 01:35:29;;;;;;;;;;;;;;;8.44;100.00;100938.47;6268834;22;19918;-92
2021/01/12 01:37:54;;;;;;;;;;;;;;;8.43;100.00;100942.88;6274010;22;19919;-96
2021/01/12 01:40:20;;;;;;;;;;;;;;;8.44;100.00;100946.31;6279239;22;19903;-92
2021/01/12 01:42:46;;;;;;;;;;;;;;;8.44;100.00;100941.06;6278139;22;19939;-92
2021/01/12 01:45:12;;;;;;;;;;;;;;;8.45;100.00;100942.75;6254569;22;19915;-93
2021/01/12 01:47:42;;;;;;;;;;;;;;;8.45;100.00;100940.13;6231109;22;19919;-92
2021/01/12 01:50:08;;;;;;;;;;;;;;;8.46;100.00;100945.22;6255210;22;19915;-92
2021/01/12 01:52:33;;;;;;;;;;;;;;;8.46;100.00;100952.25;6256708;22;19966;-92
2021/01/12 01:54:59;;;;;;;;;;;;;;;8.47;100.00;100948.66;6264874;22;19907;-92
2021/01/12 01:57:24;;;;;;;;;;;;;;;8.47;100.00;100957.34;6268643;22;19912;-92
2021/01/12 01:59:51;;;;;;;;;;;;;;;8.48;100.00;100955.56;6275205;22;19956;-93
2021/01/12 02:02:18;;;;;;;;;;;;;;;8.47;100.00;100967.81;6272111;22;19922;-91
2021/01/12 02:04:45;;;;;;;;;;;;;;;8.51;100.00;100976.22;6285917;22;19935;-93
2021/01/12 02:07:12;;;;;;;;;;;;;;;8.51;100.00;100971.00;6283937;22;19907;-91
2021/01/12 02:09:58;;;;;;;;;;;;;;;8.51;100.00;100971.00;6287551;22;19946;-90
2021/01/12 02:12:28;;;;;;;;;;;;;;;8.49;100.00;100972.91;6289944;22;19942;-91
2021/01/12 02:14:53;;;;;;;;;;;;;;;8.44;100.00;100985.50;6298365;22;19905;-92
2021/01/12 02:17:19;;;;;;;;;;;;;;;8.40;100.00;100984.94;6304414;22;20066;-93
2021/01/12 02:19:45;;;;;;;;;;;;;;;8.36;100.00;100979.13;6295387;22;19942;-89
2021/01/12 02:22:22;;;;;;;;;;;;;;;8.32;100.00;100977.63;6301723;22;19914;-89
2021/01/12 02:25:14;;;;;;;;;;;;;;;8.31;100.00;100983.81;6300307;22;19917;-89
2021/01/12 02:27:51;;;;;;;;;;;;;;;8.31;100.00;100985.59;6302244;22;19910;-90
2021/01/12 02:30:26;;;;;;;;;;;;;;;8.29;100.00;100987.50;6319611;22;19949;-90
2021/01/12 02:35:52;;;;;;;;;;;;;;;8.28;100.00;100996.28;6293705;22;19920;-90
2021/01/12 02:38:37;;;;;;;;;;;;;;;8.27;100.00;101008.53;6284012;22;19969;-86
2021/01/12 02:41:21;;;;;;;;;;;;;;;8.27;100.00;101013.75;6180418;23;19927;-89
2021/01/12 02:44:03;;;;;;;;;;;;;;;8.28;100.00;101020.66;6216136;22;19981;-90
2021/01/12 02:47:00;;;;;;;;;;;;;;;8.28;100.00;101025.88;6226156;22;19931;-89
2021/01/12 02:49:39;;;;;;;;;;;;;;;8.29;100.00;101027.53;6291949;22;19915;-89
2021/01/12 02:52:26;;;;;;;;;;;;;;;8.28;100.00;101031.09;6305348;22;19918;-89
2021/01/12 02:54:54;;;;;;;;;;;;;;;8.29;100.00;101032.75;6313577;22;20261;-90
2021/01/12 02:57:22;;;;;;;;;;;;;;;8.29;100.00;101027.53;6295179;22;19962;-89
2021/01/12 02:59:47;;;;;;;;;;;;;;;8.30;100.00;101026.59;6298685;22;19960;-90
2021/01/12 03:02:17;;;;;;;;;;;;;;;8.30;100.00;101038.81;6322661;22;20260;-89
2021/01/12 03:04:46;;;;;;;;;;;;;;;8.30;100.00;101033.59;6320320;22;20261;-90
2021/01/12 03:07:21;;;;;;;;;;;;;;;8.29;100.00;101040.59;6295853;22;19919;-90
2021/01/12 03:09:52;;;;;;;;;;;;;;;8.30;100.00;101044.88;6294904;22;20437;-89
2021/01/12 03:12:19;;;;;;;;;;;;;;;8.30;100.00;101036.22;6288035;22;20247;-92
2021/01/12 03:14:48;;;;;;;;;;;;;;;8.31;100.00;101048.31;6238896;22;20145;-91
2021/01/12 03:17:39;;;;;;;;;;;;;;;8.30;100.00;101044.06;6260993;22;20357;-90
2021/01/12 03:20:15;;;;;;;;;;;;;;;8.29;100.00;101053.66;6289910;22;19915;-90
2021/01/12 03:22:51;;;;;;;;;;;;;;;8.29;100.00;101056.28;6267445;22;20330;-90
2021/01/12 03:25:43;;;;;;;;;;;;;;;8.29;100.00;101053.66;6263856;22;20335;-89
2021/01/12 03:28:16;;;;;;;;;;;;;;;8.28;100.00;101054.63;6194550;23;19919;-90
2021/01/12 03:30:48;;;;;;;;;;;;;;;8.28;100.00;101051.19;6242864;22;20389;-90
2021/01/12 03:33:57;;;;;;;;;;;;;;;8.28;100.00;101056.41;6322592;22;19934;-89
2021/01/12 03:36:24;;;;;;;;;;;;;;;8.27;100.00;101058.19;6261120;23;19915;-89
2021/01/12 03:41:52;;;;;;;;;;;;;;;8.26;100.00;101059.13;6260398;23;20011;-89
2021/01/12 03:44:25;;;;;;;;;;;;;;;8.25;100.00;101057.47;6232274;23;19911;-90
2021/01/12 03:49:25;;;;;;;;;;;;;;;8.26;100.00;101064.38;6292934;22;19923;-89
2021/01/12 03:51:54;;;;;;;;;;;;;;;8.24;100.00;101066.28;6305770;22;19940;-89
2021/01/12 03:54:23;;;;;;;;;;;;;;;8.25;100.00;101067.94;6302336;22;19934;-88
2021/01/12 03:59:43;;;;;;;;;;;;;;;8.26;100.00;101087.88;6271846;22;19976;-89
2021/01/12 04:02:12;;;;;;;;;;;;;;;8.27;100.00;101092.16;6292497;22;19943;-89
2021/01/12 04:04:45;;;;;;;;;;;;;;;8.28;100.00;101103.44;6214868;22;19923;-89
2021/01/12 04:07:12;;;;;;;;;;;;;;;8.24;100.00;101113.31;6236299;22;19916;-89
2021/01/12 04:09:41;;;;;;;;;;;;;;;8.18;100.00;101107.69;6265707;22;19911;-89
2021/01/12 04:12:07;;;;;;;;;;;;;;;8.07;100.00;101113.75;6261854;22;19911;-89
2021/01/12 04:14:33;;;;;;;;;;;;;;;7.97;100.00;101112.75;6275182;22;19923;-89
2021/01/12 04:17:19;;;;;;;;;;;;;;;7.82;100.00;101122.53;6237117;22;19930;-90
2021/01/12 04:19:49;;;;;;;;;;;;;;;7.73;100.00;101120.59;6261746;22;19919;-90
2021/01/12 04:22:16;;;;;;;;;;;;;;;7.63;100.00;101122.22;6263873;22;19903;-90
2021/01/12 04:25:02;;;;;;;;;;;;;;;7.53;100.00;101127.25;6272342;22;19923;-90
2021/01/12 04:27:28;;;;;;;;;;;;;;;7.46;100.00;101124.28;6257568;22;19914;-90
2021/01/12 04:30:16;;;;;;;;;;;;;;;7.38;100.00;101128.34;6292488;22;19935;-89
2021/01/12 04:32:47;;;;;;;;;;;;;;;7.35;100.00;101133.78;6292275;22;19930;-90
